sensor_id;sensor_type;location;lat;lon;timestamp;temperature;humidity
12872;DHT22;6504;53.766;9.626;2022-12-07T00:01:20;2.50;99.90
12872;DHT22;6504;53.766;9.626;2022-12-07T00:03:51;2.60;99.90
12872;DHT22;6504;53.766;9.626;2022-12-07T00:06:19;2.60;99.90
12872;DHT22;6504;53.766;9.626;2022-12-07T00:08:49;2.60;99.90
12872;DHT22;6504;53.766;9.626;2022-12-07T00:11:19;2.50;99.90
12872;DHT22;6504;53.766;9.626;2022-12-07T00:13:51;2.50;99.90
12872;DHT22;6504;53.766;9.626;2022-12-07T00:16:21;2.50;99.90
12872;DHT22;6504;53.766;9.626;2022-12-07T00:18:50;2.50;99.90
12872;DHT22;6504;53.766;9.626;2022-12-07T00:21:20;2.50;99.90
12872;DHT22;6504;53.766;9.626;2022-12-07T00:23:50;2.60;99.90
12872;DHT22;6504;53.766;9.626;2022-12-07T00:26:20;2.50;99.90
12872;DHT22;6504;53.766;9.626;2022-12-07T00:28:51;2.50;99.90
12872;DHT22;6504;53.766;9.626;2022-12-07T00:31:21;2.50;99.90
12872;DHT22;6504;53.766;9.626;2022-12-07T00:33:49;2.50;99.90
12872;DHT22;6504;53.766;9.626;2022-12-07T00:36:19;2.50;99.90
12872;DHT22;6504;53.766;9.626;2022-12-07T00:38:54;2.50;99.90
12872;DHT22;6504;53.766;9.626;2022-12-07T00:41:25;2.50;99.90
12872;DHT22;6504;53.766;9.626;2022-12-07T00:43:53;2.60;99.90
12872;DHT22;6504;53.766;9.626;2022-12-07T00:46:22;2.60;99.90
12872;DHT22;6504;53.766;9.626;2022-12-07T00:48:51;2.50;99.90
12872;DHT22;6504;53.766;9.626;2022-12-07T00:51:22;2.50;99.90
12872;DHT22;6504;53.766;9.626;2022-12-07T00:53:50;2.60;99.90
12872;DHT22;6504;53.766;9.626;2022-12-07T00:56:21;2.50;99.90
12872;DHT22;6504;53.766;9.626;2022-12-07T00:58:51;2.50;99.90
12872;DHT22;6504;53.766;9.626;2022-12-07T01:01:19;2.50;99.90
12872;DHT22;6504;53.766;9.626;2022-12-07T01:03:47;2.50;99.90
12872;DHT22;6504;53.766;9.626;2022-12-07T01:06:16;2.50;99.90
12872;DHT22;6504;53.766;9.626;2022-12-07T01:08:44;2.50;99.90
12872;DHT22;6504;53.766;9.626;2022-12-07T01:11:15;2.50;99.90
12872;DHT22;6504;53.766;9.626;2022-12-07T01:13:46;2.50;99.90
12872;DHT22;6504;53.766;9.626;2022-12-07T01:16:15;2.50;99.90
12872;DHT22;6504;53.766;9.626;2022-12-07T01:18:46;2.50;99.90
12872;DHT22;6504;53.766;9.626;2022-12-07T01:21:16;2.50;99.90
12872;DHT22;6504;53.766;9.626;2022-12-07T01:23:44;2.50;99.90
12872;DHT22;6504;53.766;9.626;2022-12-07T01:26:14;2.50;99.90
12872;DHT22;6504;53.766;9.626;2022-12-07T01:28:42;2.50;99.90
12872;DHT22;6504;53.766;9.626;2022-12-07T01:31:13;2.50;99.90
12872;DHT22;6504;53.766;9.626;2022-12-07T01:33:44;2.50;99.90
12872;DHT22;6504;53.766;9.626;2022-12-07T01:36:17;2.50;99.90
12872;DHT22;6504;53.766;9.626;2022-12-07T01:38:47;2.50;99.90
12872;DHT22;6504;53.766;9.626;2022-12-07T01:41:15;2.50;99.90
12872;DHT22;6504;53.766;9.626;2022-12-07T01:44:08;2.40;99.90
12872;DHT22;6504;53.766;9.626;2022-12-07T01:46:39;2.50;99.90
12872;DHT22;6504;53.766;9.626;2022-12-07T01:49:10;2.50;99.90
12872;DHT22;6504;53.766;9.626;2022-12-07T01:51:41;2.50;99.90
12872;DHT22;6504;53.766;9.626;2022-12-07T01:54:11;2.50;99.90
12872;DHT22;6504;53.766;9.626;2022-12-07T01:56:44;2.50;99.90
12872;DHT22;6504;53.766;9.626;2022-12-07T01:59:15;2.50;99.90
12872;DHT22;6504;53.766;9.626;2022-12-07T02:01:46;2.50;99.90
12872;DHT22;6504;53.766;9.626;2022-12-07T02:04:14;2.50;99.90
12872;DHT22;6504;53.766;9.626;2022-12-07T02:06:43;2.50;99.90
12872;DHT22;6504;53.766;9.626;2022-12-07T02:09:11;2.50;99.90
12872;DHT22;6504;53.766;9.626;2022-12-07T02:11:40;2.50;99.90
12872;DHT22;6504;53.766;9.626;2022-12-07T02:14:09;2.40;99.90
12872;DHT22;6504;53.766;9.626;2022-12-07T02:16:46;2.40;99.90
12872;DHT22;6504;53.766;9.626;2022-12-07T02:19:51;2.40;99.90
12872;DHT22;6504;53.766;9.626;2022-12-07T02:25:37;2.40;99.90
12872;DHT22;6504;53.766;9.626;2022-12-07T02:28:19;2.40;99.90
12872;DHT22;6504;53.766;9.626;2022-12-07T02:30:51;2.40;99.90
12872;DHT22;6504;53.766;9.626;2022-12-07T02:33:24;2.40;99.90
12872;DHT22;6504;53.766;9.626;2022-12-07T02:35:57;2.40;99.90
12872;DHT22;6504;53.766;9.626;2022-12-07T02:38:32;2.40;99.90
12872;DHT22;6504;53.766;9.626;2022-12-07T02:41:04;2.40;99.90
12872;DHT22;6504;53.766;9.626;2022-12-07T02:43:35;2.30;99.90
12872;DHT22;6504;53.766;9.626;2022-12-07T02:46:10;2.30;99.90
12872;DHT22;6504;53.766;9.626;2022-12-07T02:48:40;2.30;99.90
12872;DHT22;6504;53.766;9.626;2022-12-07T02:51:09;2.30;99.90
12872;DHT22;6504;53.766;9.626;2022-12-07T02:53:39;2.30;99.90
12872;DHT22;6504;53.766;9.626;2022-12-07T02:56:13;2.40;99.90
12872;DHT22;6504;53.766;9.626;2022-12-07T02:58:53;2.40;99.90
12872;DHT22;6504;53.766;9.626;2022-12-07T03:01:35;2.30;99.90
12872;DHT22;6504;53.766;9.626;2022-12-07T03:04:15;2.30;99.90
12872;DHT22;6504;53.766;9.626;2022-12-07T03:06:51;2.30;99.90
12872;DHT22;6504;53.766;9.626;2022-12-07T03:09:27;2.30;99.90
12872;DHT22;6504;53.766;9.626;2022-12-07T03:12:02;2.30;99.90
12872;DHT22;6504;53.766;9.626;2022-12-07T03:14:35;2.30;99.90
12872;DHT22;6504;53.766;9.626;2022-12-07T03:17:12;2.30;99.90
12872;DHT22;6504;53.766;9.626;2022-12-07T03:19:42;2.30;99.90
12872;DHT22;6504;53.766;9.626;2022-12-07T03:22:13;2.30;99.90
12872;DHT22;6504;53.766;9.626;2022-12-07T03:24:44;2.30;99.90
12872;DHT22;6504;53.766;9.626;2022-12-07T03:27:18;2.30;99.90
12872;DHT22;6504;53.766;9.626;2022-12-07T03:29:51;2.30;99.90
12872;DHT22;6504;53.766;9.626;2022-12-07T03:32:26;2.30;99.90
12872;DHT22;6504;53.766;9.626;2022-12-07T03:35:03;2.30;99.90
12872;DHT22;6504;53.766;9.626;2022-12-07T03:37:35;2.30;99.90
12872;DHT22;6504;53.766;9.626;2022-12-07T03:40:16;2.30;99.90
12872;DHT22;6504;53.766;9.626;2022-12-07T03:42:46;2.30;99.90
12872;DHT22;6504;53.766;9.626;2022-12-07T03:45:15;2.30;99.90
12872;DHT22;6504;53.766;9.626;2022-12-07T03:47:48;2.30;99.90
12872;DHT22;6504;53.766;9.626;2022-12-07T03:50:22;2.30;99.90
12872;DHT22;6504;53.766;9.626;2022-12-07T03:52:56;2.30;99.90
12872;DHT22;6504;53.766;9.626;2022-12-07T03:55:29;2.30;99.90
12872;DHT22;6504;53.766;9.626;2022-12-07T03:58:01;2.30;99.90
12872;DHT22;6504;53.766;9.626;2022-12-07T04:00:31;2.30;99.90
12872;DHT22;6504;53.766;9.626;2022-12-07T04:03:01;2.30;99.90
12872;DHT22;6504;53.766;9.626;2022-12-07T04:05:29;2.30;99.90
12872;DHT22;6504;53.766;9.626;2022-12-07T04:07:57;2.30;99.90
12872;DHT22;6504;53.766;9.626;2022-12-07T04:10:25;2.20;99.90
12872;DHT22;6504;53.766;9.626;2022-12-07T04:12:55;2.20;99.90
12872;DHT22;6504;53.766;9.626;2022-12-07T04:15:23;2.20;99.90
12872;DHT22;6504;53.766;9.626;2022-12-07T04:17:51;2.20;99.90
12872;DHT22;6504;53.766;9.626;2022-12-07T04:20:20;2.30;99.90
12872;DHT22;6504;53.766;9.626;2022-12-07T04:22:48;2.30;99.90
12872;DHT22;6504;53.766;9.626;2022-12-07T04:25:16;2.30;99.90
12872;DHT22;6504;53.766;9.626;2022-12-07T04:27:44;2.30;99.90
12872;DHT22;6504;53.766;9.626;2022-12-07T04:30:13;2.30;99.90
12872;DHT22;6504;53.766;9.626;2022-12-07T04:32:41;2.30;99.90
12872;DHT22;6504;53.766;9.626;2022-12-07T04:35:09;2.30;99.90
12872;DHT22;6504;53.766;9.626;2022-12-07T04:37:38;2.30;99.90
12872;DHT22;6504;53.766;9.626;2022-12-07T04:40:08;2.30;99.90
12872;DHT22;6504;53.766;9.626;2022-12-07T04:42:38;2.30;99.90
12872;DHT22;6504;53.766;9.626;2022-12-07T04:45:07;2.40;99.90
12872;DHT22;6504;53.766;9.626;2022-12-07T04:47:35;2.30;99.90
12872;DHT22;6504;53.766;9.626;2022-12-07T04:50:04;2.30;99.90
12872;DHT22;6504;53.766;9.626;2022-12-07T04:52:32;2.40;99.90
12872;DHT22;6504;53.766;9.626;2022-12-07T04:55:02;2.40;99.90
12872;DHT22;6504;53.766;9.626;2022-12-07T04:57:30;2.40;99.90
12872;DHT22;6504;53.766;9.626;2022-12-07T04:59:58;2.40;99.90
12872;DHT22;6504;53.766;9.626;2022-12-07T05:02:27;2.30;99.90
12872;DHT22;6504;53.766;9.626;2022-12-07T05:04:55;2.40;99.90
12872;DHT22;6504;53.766;9.626;2022-12-07T05:07:23;2.40;99.90
12872;DHT22;6504;53.766;9.626;2022-12-07T05:09:51;2.30;99.90
12872;DHT22;6504;53.766;9.626;2022-12-07T05:12:20;2.30;99.90
12872;DHT22;6504;53.766;9.626;2022-12-07T05:14:48;2.30;99.90
12872;DHT22;6504;53.766;9.626;2022-12-07T05:17:16;2.20;99.90
12872;DHT22;6504;53.766;9.626;2022-12-07T05:19:44;2.20;99.90
12872;DHT22;6504;53.766;9.626;2022-12-07T05:22:12;2.20;99.90
12872;DHT22;6504;53.766;9.626;2022-12-07T05:24:42;2.20;99.90
12872;DHT22;6504;53.766;9.626;2022-12-07T05:27:10;2.20;99.90
12872;DHT22;6504;53.766;9.626;2022-12-07T05:29:39;2.20;99.90
12872;DHT22;6504;53.766;9.626;2022-12-07T05:32:07;2.20;99.90
12872;DHT22;6504;53.766;9.626;2022-12-07T05:34:35;2.20;99.90
12872;DHT22;6504;53.766;9.626;2022-12-07T05:37:03;2.20;99.90
12872;DHT22;6504;53.766;9.626;2022-12-07T05:39:31;2.10;99.90
12872;DHT22;6504;53.766;9.626;2022-12-07T05:41:59;2.10;99.90
12872;DHT22;6504;53.766;9.626;2022-12-07T05:44:41;2.00;99.90
12872;DHT22;6504;53.766;9.626;2022-12-07T05:47:10;2.00;99.90
12872;DHT22;6504;53.766;9.626;2022-12-07T05:49:38;1.90;99.90
12872;DHT22;6504;53.766;9.626;2022-12-07T05:52:06;1.90;99.90
12872;DHT22;6504;53.766;9.626;2022-12-07T05:54:34;1.80;99.90
12872;DHT22;6504;53.766;9.626;2022-12-07T05:57:02;1.80;99.90
12872;DHT22;6504;53.766;9.626;2022-12-07T05:59:31;1.80;99.90
12872;DHT22;6504;53.766;9.626;2022-12-07T06:02:01;1.80;99.90
12872;DHT22;6504;53.766;9.626;2022-12-07T06:04:30;1.80;99.90
12872;DHT22;6504;53.766;9.626;2022-12-07T06:06:59;1.80;99.90
12872;DHT22;6504;53.766;9.626;2022-12-07T06:09:28;1.90;99.90
12872;DHT22;6504;53.766;9.626;2022-12-07T06:11:58;1.90;99.90
12872;DHT22;6504;53.766;9.626;2022-12-07T06:14:52;1.90;99.90
12872;DHT22;6504;53.766;9.626;2022-12-07T06:17:21;1.90;99.90
12872;DHT22;6504;53.766;9.626;2022-12-07T06:19:49;1.90;99.90
12872;DHT22;6504;53.766;9.626;2022-12-07T06:22:18;1.90;99.90
12872;DHT22;6504;53.766;9.626;2022-12-07T06:24:46;1.80;99.90
12872;DHT22;6504;53.766;9.626;2022-12-07T06:27:14;1.80;99.90
12872;DHT22;6504;53.766;9.626;2022-12-07T06:29:42;1.80;99.90
12872;DHT22;6504;53.766;9.626;2022-12-07T06:32:10;1.90;99.90
12872;DHT22;6504;53.766;9.626;2022-12-07T06:34:40;1.90;99.90
12872;DHT22;6504;53.766;9.626;2022-12-07T06:37:08;1.90;99.90
12872;DHT22;6504;53.766;9.626;2022-12-07T06:39:36;1.90;99.90
12872;DHT22;6504;53.766;9.626;2022-12-07T06:42:05;1.90;99.90
12872;DHT22;6504;53.766;9.626;2022-12-07T06:44:33;1.90;99.90
12872;DHT22;6504;53.766;9.626;2022-12-07T06:47:01;1.90;99.90
12872;DHT22;6504;53.766;9.626;2022-12-07T06:49:52;1.80;99.90
12872;DHT22;6504;53.766;9.626;2022-12-07T06:52:20;1.80;99.90
12872;DHT22;6504;53.766;9.626;2022-12-07T06:54:48;1.80;99.90
12872;DHT22;6504;53.766;9.626;2022-12-07T06:57:16;1.80;99.90
12872;DHT22;6504;53.766;9.626;2022-12-07T06:59:44;1.80;99.90
12872;DHT22;6504;53.766;9.626;2022-12-07T07:02:12;1.80;99.90
12872;DHT22;6504;53.766;9.626;2022-12-07T07:04:40;1.80;99.90
12872;DHT22;6504;53.766;9.626;2022-12-07T07:07:10;1.80;99.90
12872;DHT22;6504;53.766;9.626;2022-12-07T07:09:38;1.80;99.90
12872;DHT22;6504;53.766;9.626;2022-12-07T07:12:06;1.80;99.90
12872;DHT22;6504;53.766;9.626;2022-12-07T07:14:34;1.80;99.90
12872;DHT22;6504;53.766;9.626;2022-12-07T07:17:02;1.80;99.90
12872;DHT22;6504;53.766;9.626;2022-12-07T07:19:30;1.80;99.90
12872;DHT22;6504;53.766;9.626;2022-12-07T07:21:58;1.90;99.90
12872;DHT22;6504;53.766;9.626;2022-12-07T07:24:27;1.90;99.90
12872;DHT22;6504;53.766;9.626;2022-12-07T07:26:55;1.90;99.90
12872;DHT22;6504;53.766;9.626;2022-12-07T07:29:24;1.90;99.90
12872;DHT22;6504;53.766;9.626;2022-12-07T07:31:52;1.90;99.90
12872;DHT22;6504;53.766;9.626;2022-12-07T07:34:20;1.90;99.90
12872;DHT22;6504;53.766;9.626;2022-12-07T07:36:47;2.00;99.90
12872;DHT22;6504;53.766;9.626;2022-12-07T07:39:16;2.00;99.90
12872;DHT22;6504;53.766;9.626;2022-12-07T07:41:46;2.00;99.90
12872;DHT22;6504;53.766;9.626;2022-12-07T07:44:14;2.00;99.90
12872;DHT22;6504;53.766;9.626;2022-12-07T07:46:42;2.00;99.90
12872;DHT22;6504;53.766;9.626;2022-12-07T07:49:10;2.00;99.90
12872;DHT22;6504;53.766;9.626;2022-12-07T07:51:38;2.00;99.90
12872;DHT22;6504;53.766;9.626;2022-12-07T07:54:06;2.00;99.90
12872;DHT22;6504;53.766;9.626;2022-12-07T07:56:34;2.00;99.90
12872;DHT22;6504;53.766;9.626;2022-12-07T07:59:04;1.90;99.90
12872;DHT22;6504;53.766;9.626;2022-12-07T08:01:32;1.90;99.90
12872;DHT22;6504;53.766;9.626;2022-12-07T08:04:00;2.00;99.90
12872;DHT22;6504;53.766;9.626;2022-12-07T08:06:28;2.00;99.90
12872;DHT22;6504;53.766;9.626;2022-12-07T08:08:58;2.00;99.90
12872;DHT22;6504;53.766;9.626;2022-12-07T08:11:26;2.00;99.90
12872;DHT22;6504;53.766;9.626;2022-12-07T08:13:54;1.90;99.90
12872;DHT22;6504;53.766;9.626;2022-12-07T08:16:24;1.90;99.90
12872;DHT22;6504;53.766;9.626;2022-12-07T08:18:52;1.90;99.90
12872;DHT22;6504;53.766;9.626;2022-12-07T08:21:20;2.00;99.90
12872;DHT22;6504;53.766;9.626;2022-12-07T08:23:48;1.90;99.90
12872;DHT22;6504;53.766;9.626;2022-12-07T08:26:16;2.00;99.90
12872;DHT22;6504;53.766;9.626;2022-12-07T08:28:44;2.00;99.90
12872;DHT22;6504;53.766;9.626;2022-12-07T08:31:14;2.00;99.90
12872;DHT22;6504;53.766;9.626;2022-12-07T08:33:44;2.00;99.90
12872;DHT22;6504;53.766;9.626;2022-12-07T08:36:13;2.00;99.90
12872;DHT22;6504;53.766;9.626;2022-12-07T08:38:42;2.00;99.90
12872;DHT22;6504;53.766;9.626;2022-12-07T08:41:30;2.00;99.90
12872;DHT22;6504;53.766;9.626;2022-12-07T08:43:58;2.00;99.90
12872;DHT22;6504;53.766;9.626;2022-12-07T08:46:30;2.10;99.90
12872;DHT22;6504;53.766;9.626;2022-12-07T08:49:05;2.10;99.90
12872;DHT22;6504;53.766;9.626;2022-12-07T08:51:35;2.10;99.90
12872;DHT22;6504;53.766;9.626;2022-12-07T08:54:06;2.10;99.90
12872;DHT22;6504;53.766;9.626;2022-12-07T08:56:35;2.10;99.90
12872;DHT22;6504;53.766;9.626;2022-12-07T08:59:04;2.10;99.90
12872;DHT22;6504;53.766;9.626;2022-12-07T09:01:33;2.20;99.90
12872;DHT22;6504;53.766;9.626;2022-12-07T09:04:02;2.20;99.90
12872;DHT22;6504;53.766;9.626;2022-12-07T09:06:31;2.20;99.90
12872;DHT22;6504;53.766;9.626;2022-12-07T09:09:01;2.20;99.90
12872;DHT22;6504;53.766;9.626;2022-12-07T09:11:29;2.20;99.90
12872;DHT22;6504;53.766;9.626;2022-12-07T09:13:57;2.20;99.90
12872;DHT22;6504;53.766;9.626;2022-12-07T09:16:25;2.20;99.90
12872;DHT22;6504;53.766;9.626;2022-12-07T09:18:54;2.20;99.90
12872;DHT22;6504;53.766;9.626;2022-12-07T09:21:23;2.20;99.90
12872;DHT22;6504;53.766;9.626;2022-12-07T09:23:51;2.20;99.90
12872;DHT22;6504;53.766;9.626;2022-12-07T09:26:19;2.20;99.90
12872;DHT22;6504;53.766;9.626;2022-12-07T09:28:47;2.20;99.90
12872;DHT22;6504;53.766;9.626;2022-12-07T09:31:15;2.20;99.90
12872;DHT22;6504;53.766;9.626;2022-12-07T09:33:55;2.20;99.90
12872;DHT22;6504;53.766;9.626;2022-12-07T09:36:25;2.10;99.90
12872;DHT22;6504;53.766;9.626;2022-12-07T09:38:54;2.20;99.90
12872;DHT22;6504;53.766;9.626;2022-12-07T09:41:23;2.20;99.90
12872;DHT22;6504;53.766;9.626;2022-12-07T09:43:52;2.30;99.90
12872;DHT22;6504;53.766;9.626;2022-12-07T09:46:21;2.20;99.90
12872;DHT22;6504;53.766;9.626;2022-12-07T09:48:50;2.30;99.90
12872;DHT22;6504;53.766;9.626;2022-12-07T09:51:20;2.30;99.90
12872;DHT22;6504;53.766;9.626;2022-12-07T09:53:53;2.30;99.90
12872;DHT22;6504;53.766;9.626;2022-12-07T09:56:22;2.30;99.90
12872;DHT22;6504;53.766;9.626;2022-12-07T09:58:57;2.30;99.90
12872;DHT22;6504;53.766;9.626;2022-12-07T10:01:28;2.30;99.90
12872;DHT22;6504;53.766;9.626;2022-12-07T10:04:02;2.30;99.90
12872;DHT22;6504;53.766;9.626;2022-12-07T10:06:33;2.40;99.90
12872;DHT22;6504;53.766;9.626;2022-12-07T10:09:08;2.40;99.90
12872;DHT22;6504;53.766;9.626;2022-12-07T10:11:57;2.40;99.90
12872;DHT22;6504;53.766;9.626;2022-12-07T10:14:28;2.40;99.90
12872;DHT22;6504;53.766;9.626;2022-12-07T10:17:37;2.50;99.90
12872;DHT22;6504;53.766;9.626;2022-12-07T10:20:19;2.50;99.90
12872;DHT22;6504;53.766;9.626;2022-12-07T10:22:56;2.50;99.90
12872;DHT22;6504;53.766;9.626;2022-12-07T10:25:29;2.50;99.90
12872;DHT22;6504;53.766;9.626;2022-12-07T10:28:14;2.50;99.90
12872;DHT22;6504;53.766;9.626;2022-12-07T10:30:55;2.60;99.90
12872;DHT22;6504;53.766;9.626;2022-12-07T10:33:34;2.60;99.90
12872;DHT22;6504;53.766;9.626;2022-12-07T10:36:18;2.60;99.90
12872;DHT22;6504;53.766;9.626;2022-12-07T10:38:48;2.70;99.90
12872;DHT22;6504;53.766;9.626;2022-12-07T10:41:18;2.70;99.90
12872;DHT22;6504;53.766;9.626;2022-12-07T10:43:48;2.70;99.90
12872;DHT22;6504;53.766;9.626;2022-12-07T10:49:36;2.80;99.90
12872;DHT22;6504;53.766;9.626;2022-12-07T10:52:13;2.80;99.90
12872;DHT22;6504;53.766;9.626;2022-12-07T10:55:04;2.80;99.90
12872;DHT22;6504;53.766;9.626;2022-12-07T10:57:47;2.80;99.90
12872;DHT22;6504;53.766;9.626;2022-12-07T11:00:21;2.90;99.90
12872;DHT22;6504;53.766;9.626;2022-12-07T11:03:05;2.90;99.90
12872;DHT22;6504;53.766;9.626;2022-12-07T11:05:40;2.90;99.90
12872;DHT22;6504;53.766;9.626;2022-12-07T11:08:16;3.00;99.90
12872;DHT22;6504;53.766;9.626;2022-12-07T11:10:52;3.00;99.90
12872;DHT22;6504;53.766;9.626;2022-12-07T11:13:29;3.00;99.90
12872;DHT22;6504;53.766;9.626;2022-12-07T11:16:24;3.00;99.90
12872;DHT22;6504;53.766;9.626;2022-12-07T11:19:11;3.00;99.90
12872;DHT22;6504;53.766;9.626;2022-12-07T11:21:48;3.00;99.90
12872;DHT22;6504;53.766;9.626;2022-12-07T11:24:24;3.00;99.90
12872;DHT22;6504;53.766;9.626;2022-12-07T11:27:04;3.10;99.90
12872;DHT22;6504;53.766;9.626;2022-12-07T11:30:03;3.10;99.90
12872;DHT22;6504;53.766;9.626;2022-12-07T11:32:47;3.10;99.90
12872;DHT22;6504;53.766;9.626;2022-12-07T11:35:24;3.20;99.90
12872;DHT22;6504;53.766;9.626;2022-12-07T11:38:00;3.20;99.90
12872;DHT22;6504;53.766;9.626;2022-12-07T11:40:33;3.20;99.90
12872;DHT22;6504;53.766;9.626;2022-12-07T11:43:09;3.20;99.90
12872;DHT22;6504;53.766;9.626;2022-12-07T11:45:42;3.20;99.90
12872;DHT22;6504;53.766;9.626;2022-12-07T11:48:15;3.30;99.90
12872;DHT22;6504;53.766;9.626;2022-12-07T11:50:48;3.30;99.90
12872;DHT22;6504;53.766;9.626;2022-12-07T11:53:20;3.30;99.90
12872;DHT22;6504;53.766;9.626;2022-12-07T11:55:52;3.30;99.90
12872;DHT22;6504;53.766;9.626;2022-12-07T11:58:35;3.30;99.90
12872;DHT22;6504;53.766;9.626;2022-12-07T12:01:14;3.40;99.90
12872;DHT22;6504;53.766;9.626;2022-12-07T12:03:45;3.40;99.90
12872;DHT22;6504;53.766;9.626;2022-12-07T12:06:20;3.40;99.90
12872;DHT22;6504;53.766;9.626;2022-12-07T12:08:50;3.40;99.90
12872;DHT22;6504;53.766;9.626;2022-12-07T12:11:52;3.40;99.90
12872;DHT22;6504;53.766;9.626;2022-12-07T12:14:52;3.40;99.90
12872;DHT22;6504;53.766;9.626;2022-12-07T12:17:38;3.50;99.90
12872;DHT22;6504;53.766;9.626;2022-12-07T12:20:19;3.50;99.90
12872;DHT22;6504;53.766;9.626;2022-12-07T12:22:52;3.50;99.90
12872;DHT22;6504;53.766;9.626;2022-12-07T12:25:23;3.50;99.90
12872;DHT22;6504;53.766;9.626;2022-12-07T12:27:54;3.50;99.90
12872;DHT22;6504;53.766;9.626;2022-12-07T12:30:33;3.50;99.90
12872;DHT22;6504;53.766;9.626;2022-12-07T12:33:06;3.50;99.90
12872;DHT22;6504;53.766;9.626;2022-12-07T12:35:40;3.50;99.90
12872;DHT22;6504;53.766;9.626;2022-12-07T12:38:27;3.50;99.90
12872;DHT22;6504;53.766;9.626;2022-12-07T12:40:57;3.50;99.90
12872;DHT22;6504;53.766;9.626;2022-12-07T12:43:45;3.50;99.90
12872;DHT22;6504;53.766;9.626;2022-12-07T12:46:48;3.50;99.90
12872;DHT22;6504;53.766;9.626;2022-12-07T12:49:36;3.50;99.90
12872;DHT22;6504;53.766;9.626;2022-12-07T12:58:25;3.50;99.90
12872;DHT22;6504;53.766;9.626;2022-12-07T13:01:37;3.50;99.90
12872;DHT22;6504;53.766;9.626;2022-12-07T13:07:49;3.50;99.90
12872;DHT22;6504;53.766;9.626;2022-12-07T13:13:35;3.50;99.90
12872;DHT22;6504;53.766;9.626;2022-12-07T13:16:38;3.50;99.90
12872;DHT22;6504;53.766;9.626;2022-12-07T13:22:48;3.50;99.90
12872;DHT22;6504;53.766;9.626;2022-12-07T13:25:29;3.50;99.90
12872;DHT22;6504;53.766;9.626;2022-12-07T13:28:02;3.50;99.90
12872;DHT22;6504;53.766;9.626;2022-12-07T13:30:46;3.50;99.90
12872;DHT22;6504;53.766;9.626;2022-12-07T13:33:18;3.50;99.90
12872;DHT22;6504;53.766;9.626;2022-12-07T13:35:46;3.50;99.90
12872;DHT22;6504;53.766;9.626;2022-12-07T13:38:23;3.50;99.90
12872;DHT22;6504;53.766;9.626;2022-12-07T13:41:12;3.50;99.90
12872;DHT22;6504;53.766;9.626;2022-12-07T13:43:49;3.50;99.90
12872;DHT22;6504;53.766;9.626;2022-12-07T13:46:20;3.50;99.90
12872;DHT22;6504;53.766;9.626;2022-12-07T13:48:50;3.50;99.90
12872;DHT22;6504;53.766;9.626;2022-12-07T13:51:22;3.50;99.90
12872;DHT22;6504;53.766;9.626;2022-12-07T13:54:08;3.50;99.90
12872;DHT22;6504;53.766;9.626;2022-12-07T13:56:37;3.40;99.90
12872;DHT22;6504;53.766;9.626;2022-12-07T13:59:13;3.40;99.90
12872;DHT22;6504;53.766;9.626;2022-12-07T14:01:42;3.40;99.90
12872;DHT22;6504;53.766;9.626;2022-12-07T14:04:19;3.40;99.90
12872;DHT22;6504;53.766;9.626;2022-12-07T14:06:49;3.40;99.90
12872;DHT22;6504;53.766;9.626;2022-12-07T14:09:21;3.40;99.90
12872;DHT22;6504;53.766;9.626;2022-12-07T14:11:51;3.40;99.90
12872;DHT22;6504;53.766;9.626;2022-12-07T14:14:21;3.40;99.90
12872;DHT22;6504;53.766;9.626;2022-12-07T14:17:01;3.30;99.90
12872;DHT22;6504;53.766;9.626;2022-12-07T14:19:45;3.30;99.90
12872;DHT22;6504;53.766;9.626;2022-12-07T14:22:27;3.30;99.90
12872;DHT22;6504;53.766;9.626;2022-12-07T14:25:09;3.30;99.90
12872;DHT22;6504;53.766;9.626;2022-12-07T14:27:40;3.30;99.90
12872;DHT22;6504;53.766;9.626;2022-12-07T14:30:17;3.30;99.90
12872;DHT22;6504;53.766;9.626;2022-12-07T14:32:47;3.30;99.90
12872;DHT22;6504;53.766;9.626;2022-12-07T14:35:18;3.20;99.90
12872;DHT22;6504;53.766;9.626;2022-12-07T14:37:47;3.20;99.90
12872;DHT22;6504;53.766;9.626;2022-12-07T14:40:19;3.20;99.90
12872;DHT22;6504;53.766;9.626;2022-12-07T14:42:50;3.20;99.90
12872;DHT22;6504;53.766;9.626;2022-12-07T14:45:21;3.20;99.90
12872;DHT22;6504;53.766;9.626;2022-12-07T14:47:49;3.20;99.90
12872;DHT22;6504;53.766;9.626;2022-12-07T14:50:40;3.10;99.90
12872;DHT22;6504;53.766;9.626;2022-12-07T14:53:31;3.10;99.90
12872;DHT22;6504;53.766;9.626;2022-12-07T14:56:02;3.00;99.90
12872;DHT22;6504;53.766;9.626;2022-12-07T14:58:32;3.00;99.90
12872;DHT22;6504;53.766;9.626;2022-12-07T15:01:00;3.00;99.90
12872;DHT22;6504;53.766;9.626;2022-12-07T15:03:28;2.90;99.90
12872;DHT22;6504;53.766;9.626;2022-12-07T15:05:57;2.90;99.90
12872;DHT22;6504;53.766;9.626;2022-12-07T15:08:25;2.90;99.90
12872;DHT22;6504;53.766;9.626;2022-12-07T15:10:53;2.90;99.90
12872;DHT22;6504;53.766;9.626;2022-12-07T15:13:23;2.90;99.90
12872;DHT22;6504;53.766;9.626;2022-12-07T15:16:10;2.90;99.90
12872;DHT22;6504;53.766;9.626;2022-12-07T15:18:40;2.90;99.90
12872;DHT22;6504;53.766;9.626;2022-12-07T15:21:28;2.90;99.90
12872;DHT22;6504;53.766;9.626;2022-12-07T15:23:56;2.90;99.90
12872;DHT22;6504;53.766;9.626;2022-12-07T15:26:24;2.80;99.90
12872;DHT22;6504;53.766;9.626;2022-12-07T15:28:54;2.80;99.90
12872;DHT22;6504;53.766;9.626;2022-12-07T15:31:22;2.80;99.90
12872;DHT22;6504;53.766;9.626;2022-12-07T15:34:10;2.80;99.90
12872;DHT22;6504;53.766;9.626;2022-12-07T15:36:38;2.80;99.90
12872;DHT22;6504;53.766;9.626;2022-12-07T15:39:07;2.70;99.90
12872;DHT22;6504;53.766;9.626;2022-12-07T15:41:40;2.70;99.90
12872;DHT22;6504;53.766;9.626;2022-12-07T15:44:11;2.70;99.90
12872;DHT22;6504;53.766;9.626;2022-12-07T15:46:57;2.70;99.90
12872;DHT22;6504;53.766;9.626;2022-12-07T15:49:26;2.70;99.90
12872;DHT22;6504;53.766;9.626;2022-12-07T15:51:54;2.60;99.90
12872;DHT22;6504;53.766;9.626;2022-12-07T15:54:24;2.60;99.90
12872;DHT22;6504;53.766;9.626;2022-12-07T15:56:53;2.60;99.90
12872;DHT22;6504;53.766;9.626;2022-12-07T15:59:23;2.60;99.90
12872;DHT22;6504;53.766;9.626;2022-12-07T16:01:51;2.60;99.90
12872;DHT22;6504;53.766;9.626;2022-12-07T16:04:19;2.60;99.90
12872;DHT22;6504;53.766;9.626;2022-12-07T16:06:47;2.60;99.90
12872;DHT22;6504;53.766;9.626;2022-12-07T16:09:16;2.60;99.90
12872;DHT22;6504;53.766;9.626;2022-12-07T16:11:44;2.60;99.90
12872;DHT22;6504;53.766;9.626;2022-12-07T16:14:12;2.60;99.90
12872;DHT22;6504;53.766;9.626;2022-12-07T16:16:42;2.60;99.90
12872;DHT22;6504;53.766;9.626;2022-12-07T16:19:10;2.50;99.90
12872;DHT22;6504;53.766;9.626;2022-12-07T16:21:38;2.50;99.90
12872;DHT22;6504;53.766;9.626;2022-12-07T16:24:07;2.50;99.90
12872;DHT22;6504;53.766;9.626;2022-12-07T16:26:36;2.50;99.90
12872;DHT22;6504;53.766;9.626;2022-12-07T16:29:04;2.50;99.90
12872;DHT22;6504;53.766;9.626;2022-12-07T16:31:32;2.50;99.90
12872;DHT22;6504;53.766;9.626;2022-12-07T16:34:02;2.40;99.90
12872;DHT22;6504;53.766;9.626;2022-12-07T16:36:30;2.30;99.90
12872;DHT22;6504;53.766;9.626;2022-12-07T16:39:18;2.30;99.90
12872;DHT22;6504;53.766;9.626;2022-12-07T16:41:46;2.20;99.90
12872;DHT22;6504;53.766;9.626;2022-12-07T16:44:14;2.20;99.90
12872;DHT22;6504;53.766;9.626;2022-12-07T16:46:42;2.10;99.90
12872;DHT22;6504;53.766;9.626;2022-12-07T16:49:13;1.90;99.90
12872;DHT22;6504;53.766;9.626;2022-12-07T16:51:41;1.90;99.90
12872;DHT22;6504;53.766;9.626;2022-12-07T16:54:11;1.90;99.90
12872;DHT22;6504;53.766;9.626;2022-12-07T16:56:39;1.90;99.90
12872;DHT22;6504;53.766;9.626;2022-12-07T16:59:08;1.90;99.90